Time;durP1;ratioP1;P1;durP2;ratioP2;P2;SDS_P1;SDS_P2;PMS_P1;PMS_P2;Temp;Humidity;BMP_temperature;BMP_pressure;BME280_temperature;BME280_humidity;BME280_pressure;Samples;Min_cycle;Max_cycle;Signal;HPM_P1;HPM_P2
2022/08/05 00:01:46;;;;;;;5.27;4.00;;;27.70;56.20;;;;;;7378076;19;20468;-46
2022/08/05 00:04:15;;;;;;;4.33;3.93;;;27.50;56.10;;;;;;7381498;19;20973;-46
2022/08/05 00:06:45;;;;;;;5.63;3.40;;;27.40;56.30;;;;;;7381391;19;20379;-46
2022/08/05 00:09:17;;;;;;;6.53;3.60;;;27.40;56.10;;;;;;7380904;19;21720;-46
2022/08/05 00:11:47;;;;;;;4.00;3.30;;;27.50;55.40;;;;;;7382297;19;20405;-46
2022/08/05 00:14:16;;;;;;;3.40;3.07;;;27.70;55.40;;;;;;7381525;19;20760;-47
2022/08/05 00:16:46;;;;;;;4.40;3.93;;;27.90;54.70;;;;;;7382025;19;20387;-48
2022/08/05 00:19:16;;;;;;;3.50;3.20;;;28.20;54.40;;;;;;7381052;19;20744;-47
2022/08/05 00:21:45;;;;;;;4.17;3.43;;;28.30;53.90;;;;;;7382542;19;20364;-47
2022/08/05 00:24:17;;;;;;;7.53;3.53;;;28.40;53.70;;;;;;7383436;19;20387;-46
2022/08/05 00:26:47;;;;;;;7.60;3.47;;;28.30;54.40;;;;;;7382286;19;20424;-47
2022/08/05 00:29:16;;;;;;;3.93;3.53;;;28.20;54.80;;;;;;7381021;19;20754;-46
2022/08/05 00:31:46;;;;;;;5.10;3.73;;;27.90;55.60;;;;;;7390214;19;20484;-46
2022/08/05 00:34:15;;;;;;;4.23;3.50;;;27.60;56.40;;;;;;7389449;19;20921;-47
2022/08/05 00:36:45;;;;;;;5.57;3.00;;;27.40;56.90;;;;;;7389705;19;20908;-47
2022/08/05 00:39:17;;;;;;;3.37;3.07;;;27.30;57.20;;;;;;7387458;19;20356;-46
2022/08/05 00:41:48;;;;;;;4.80;3.80;;;27.50;56.70;;;;;;7390849;19;20823;-47
2022/08/05 00:44:18;;;;;;;4.47;3.37;;;27.70;56.10;;;;;;7387421;19;20405;-47
2022/08/05 00:46:47;;;;;;;4.53;3.87;;;27.90;55.40;;;;;;7388390;19;20384;-46
2022/08/05 00:49:18;;;;;;;3.90;3.30;;;27.90;54.20;;;;;;7388786;19;20981;-46
2022/08/05 00:51:47;;;;;;;7.27;3.50;;;27.90;54.40;;;;;;7387849;19;20971;-47
2022/08/05 00:54:19;;;;;;;4.17;3.77;;;28.00;54.20;;;;;;7388083;19;20409;-47
2022/08/05 00:56:49;;;;;;;5.03;3.70;;;28.10;54.70;;;;;;7387225;19;21544;-47
2022/08/05 00:59:21;;;;;;;4.30;3.90;;;28.00;55.30;;;;;;7387880;19;21060;-47
2022/08/05 01:01:51;;;;;;;5.23;3.70;;;27.90;55.50;;;;;;7384883;19;20440;-47
2022/08/05 01:04:20;;;;;;;4.13;3.40;;;27.90;55.50;;;;;;7386548;19;20484;-47
2022/08/05 01:06:50;;;;;;;4.00;3.60;;;27.80;54.70;;;;;;7388798;19;20436;-47
2022/08/05 01:09:22;;;;;;;4.43;3.10;;;27.80;52.90;;;;;;7385589;19;20372;-47
2022/08/05 01:11:54;;;;;;;6.43;3.10;;;27.80;50.20;;;;;;7384759;19;20773;-47
2022/08/05 01:14:28;;;;;;;3.17;2.87;;;27.90;51.10;;;;;;7388723;19;20401;-47
2022/08/05 01:17:04;;;;;;;3.57;2.83;;;28.00;49.40;;;;;;7386131;19;20387;-47
2022/08/05 01:19:38;;;;;;;2.97;2.40;;;28.10;49.20;;;;;;7387153;19;20383;-47
2022/08/05 01:22:25;;;;;;;5.50;2.90;;;28.20;49.00;;;;;;7386541;19;20428;-47
2022/08/05 01:25:13;;;;;;;3.13;2.73;;;28.20;48.80;;;;;;7386329;19;20383;-47
2022/08/05 01:28:16;;;;;;;4.40;2.83;;;28.10;49.40;;;;;;7389064;19;20475;-47
2022/08/05 01:30:49;;;;;;;7.10;3.40;;;28.10;49.50;;;;;;7385710;19;20412;-47
2022/08/05 01:33:28;;;;;;;3.73;3.07;;;28.10;49.70;;;;;;7386180;19;20405;-47
2022/08/05 01:36:02;;;;;;;14.90;3.30;;;28.00;50.30;;;;;;7385343;19;20388;-47
2022/08/05 01:38:36;;;;;;;2.60;2.37;;;28.10;50.30;;;;;;7386578;19;20412;-47
2022/08/05 01:41:09;;;;;;;5.50;3.03;;;28.10;50.60;;;;;;7385588;19;20917;-47
2022/08/05 01:43:42;;;;;;;5.53;2.73;;;28.10;51.30;;;;;;7385699;19;20376;-47
2022/08/05 01:46:12;;;;;;;6.23;2.40;;;28.10;51.00;;;;;;7386481;19;20914;-47
2022/08/05 01:48:43;;;;;;;2.83;2.53;;;28.10;51.00;;;;;;7386205;19;20881;-47
2022/08/05 01:51:13;;;;;;;6.70;3.20;;;28.10;51.20;;;;;;7383093;19;20380;-47
2022/08/05 01:53:44;;;;;;;4.33;2.93;;;28.10;51.70;;;;;;7384716;19;20381;-47
2022/08/05 01:56:16;;;;;;;3.83;2.30;;;28.00;51.80;;;;;;7386864;19;20376;-47
2022/08/05 01:58:51;;;;;;;5.60;2.67;;;28.00;52.00;;;;;;7384835;19;20399;-47
2022/08/05 02:01:22;;;;;;;4.20;2.23;;;28.00;52.40;;;;;;7385151;19;20431;-46
2022/08/05 02:03:54;;;;;;;3.07;2.50;;;27.80;52.70;;;;;;7384469;19;20384;-47
2022/08/05 02:06:24;;;;;;;5.53;2.80;;;27.80;53.20;;;;;;7387453;19;20383;-46
2022/08/05 02:08:54;;;;;;;6.87;3.30;;;27.80;53.10;;;;;;7385155;19;20389;-47
2022/08/05 02:11:24;;;;;;;7.27;2.37;;;27.90;53.10;;;;;;7384732;19;20376;-46
2022/08/05 02:14:05;;;;;;;3.70;2.80;;;27.90;53.10;;;;;;7385563;19;20364;-46
2022/08/05 02:16:41;;;;;;;4.47;2.60;;;27.90;53.10;;;;;;7387435;19;20383;-47
2022/08/05 02:19:16;;;;;;;5.13;2.93;;;28.00;53.10;;;;;;7384583;19;20386;-47
2022/08/05 02:21:51;;;;;;;3.97;2.50;;;28.00;53.10;;;;;;7384747;19;20383;-46
2022/08/05 02:24:24;;;;;;;5.83;2.70;;;28.10;53.10;;;;;;7384078;19;21026;-47
2022/08/05 02:27:00;;;;;;;3.10;2.70;;;28.10;53.00;;;;;;7386830;19;20383;-46
2022/08/05 02:29:35;;;;;;;4.30;2.47;;;28.10;53.10;;;;;;7386558;19;20376;-47
2022/08/05 02:32:09;;;;;;;4.27;3.03;;;28.10;53.20;;;;;;7382594;19;20427;-47
2022/08/05 02:34:39;;;;;;;10.23;2.80;;;28.00;53.10;;;;;;7382355;19;20377;-47
2022/08/05 02:37:11;;;;;;;6.70;2.80;;;28.00;53.30;;;;;;7383884;19;20373;-47
2022/08/05 02:39:41;;;;;;;6.37;3.27;;;28.10;53.20;;;;;;7384033;19;20387;-47
2022/08/05 02:42:12;;;;;;;5.13;3.20;;;28.00;53.50;;;;;;7383853;19;20395;-47
2022/08/05 02:44:46;;;;;;;5.03;2.70;;;27.90;53.60;;;;;;7385193;19;20930;-47
2022/08/05 02:47:17;;;;;;;4.70;3.07;;;27.90;53.90;;;;;;7384050;19;20970;-47
2022/08/05 02:49:48;;;;;;;7.33;3.10;;;27.90;53.80;;;;;;7385650;19;20387;-47
2022/08/05 02:52:20;;;;;;;5.20;3.40;;;27.90;53.80;;;;;;7383538;19;20380;-47
2022/08/05 02:54:52;;;;;;;5.60;2.67;;;28.00;53.70;;;;;;7383829;19;20376;-47
2022/08/05 02:57:26;;;;;;;3.57;2.93;;;27.90;53.80;;;;;;7383202;19;20364;-47
2022/08/05 02:59:58;;;;;;;4.93;2.80;;;28.00;53.80;;;;;;7382453;19;20425;-47
2022/08/05 03:02:31;;;;;;;3.37;2.70;;;28.00;54.00;;;;;;7384039;19;20472;-47
2022/08/05 03:05:01;;;;;;;5.00;2.70;;;28.00;54.00;;;;;;7382937;19;20723;-47
2022/08/05 03:07:31;;;;;;;3.00;2.70;;;28.00;54.00;;;;;;7385421;19;20973;-47
2022/08/05 03:10:00;;;;;;;4.20;2.80;;;27.90;54.00;;;;;;7385695;19;20368;-47
2022/08/05 03:12:33;;;;;;;3.50;3.20;;;28.00;54.10;;;;;;7382000;19;20376;-47
2022/08/05 03:15:08;;;;;;;3.70;2.87;;;28.00;54.10;;;;;;7384142;19;20727;-47
2022/08/05 03:17:37;;;;;;;5.00;3.10;;;28.00;54.60;;;;;;7380803;19;20375;-48
2022/08/05 03:20:08;;;;;;;5.47;3.00;;;27.90;54.10;;;;;;7385596;19;20384;-47
2022/08/05 03:22:38;;;;;;;6.30;3.30;;;27.90;54.20;;;;;;7382939;19;20985;-47
2022/08/05 03:25:09;;;;;;;10.00;3.20;;;27.90;54.30;;;;;;7382703;19;20376;-47
2022/08/05 03:27:39;;;;;;;4.40;3.10;;;27.90;54.30;;;;;;7383861;19;20934;-47
2022/08/05 03:30:12;;;;;;;5.00;3.20;;;27.90;54.40;;;;;;7384983;19;20414;-47
2022/08/05 03:32:42;;;;;;;5.30;3.23;;;27.90;54.50;;;;;;7381355;19;20410;-46
2022/08/05 03:35:12;;;;;;;4.10;2.80;;;27.90;54.60;;;;;;7383026;19;20417;-47
2022/08/05 03:37:43;;;;;;;3.97;2.77;;;27.80;54.70;;;;;;7382777;19;20422;-47
2022/08/05 03:40:13;;;;;;;6.23;4.07;;;27.80;54.70;;;;;;7382492;19;20937;-47
2022/08/05 03:42:43;;;;;;;3.50;2.90;;;27.80;54.90;;;;;;7382844;19;20368;-47
2022/08/05 03:45:15;;;;;;;5.50;3.50;;;27.70;55.80;;;;;;7383946;19;20378;-47
2022/08/05 03:47:44;;;;;;;8.30;3.10;;;27.70;55.40;;;;;;7383802;19;20376;-47
2022/08/05 03:50:16;;;;;;;4.47;3.13;;;27.40;56.10;;;;;;7383039;19;20395;-46
2022/08/05 03:52:59;;;;;;;4.87;2.80;;;27.30;56.70;;;;;;7382116;19;20377;-46
2022/08/05 03:55:36;;;;;;;4.23;2.90;;;27.10;57.20;;;;;;7382088;19;20406;-46
2022/08/05 03:58:06;;;;;;;4.33;3.20;;;26.70;58.40;;;;;;7382177;19;20368;-46
2022/08/05 04:00:43;;;;;;;5.53;3.10;;;26.40;59.40;;;;;;7379495;19;20432;-46
2022/08/05 04:03:14;;;;;;;4.57;3.30;;;26.10;60.30;;;;;;7380010;19;20464;-46
2022/08/05 04:05:46;;;;;;;4.73;2.83;;;26.00;61.10;;;;;;7385136;19;20735;-46
2022/08/05 04:08:16;;;;;;;5.13;2.80;;;26.00;61.20;;;;;;7390210;19;20760;-47
2022/08/05 04:10:48;;;;;;;4.27;3.30;;;26.00;61.30;;;;;;7389818;19;20428;-46
2022/08/05 04:13:20;;;;;;;6.80;3.40;;;25.90;61.90;;;;;;7390877;19;20387;-46
2022/08/05 04:15:52;;;;;;;7.57;4.00;;;25.60;63.90;;;;;;7388352;19;20419;-46
2022/08/05 04:18:24;;;;;;;2.83;2.63;;;25.50;64.30;;;;;;7387774;19;20389;-46
2022/08/05 04:20:58;;;;;;;5.23;2.90;;;25.70;64.30;;;;;;7388772;19;22077;-46
2022/08/05 04:23:29;;;;;;;9.53;3.17;;;25.70;64.10;;;;;;7388776;19;20372;-46
2022/08/05 04:25:58;;;;;;;6.23;3.60;;;25.70;64.10;;;;;;7388442;19;20413;-46
2022/08/05 04:28:30;;;;;;;4.50;3.80;;;25.50;65.00;;;;;;7387467;19;20440;-46
2022/08/05 04:31:03;;;;;;;6.10;3.33;;;25.40;66.20;;;;;;7387461;19;20404;-47
2022/08/05 04:33:32;;;;;;;4.83;3.10;;;25.30;66.90;;;;;;7387702;19;20371;-47
2022/08/05 04:36:02;;;;;;;7.77;3.23;;;25.40;66.80;;;;;;7387235;19;20462;-47
2022/08/05 04:38:31;;;;;;;5.20;3.20;;;25.50;66.30;;;;;;7389016;19;21017;-46
2022/08/05 04:41:00;;;;;;;3.80;3.30;;;25.70;65.60;;;;;;7389425;19;20828;-47
2022/08/05 04:43:30;;;;;;;6.47;3.57;;;25.80;65.00;;;;;;7390076;19;20443;-47
2022/08/05 04:46:04;;;;;;;4.20;3.43;;;25.80;64.60;;;;;;7390241;19;20380;-47
2022/08/05 04:48:34;;;;;;;7.73;4.10;;;26.00;63.80;;;;;;7387539;19;20394;-47
2022/08/05 04:51:06;;;;;;;4.67;3.60;;;26.10;63.00;;;;;;7389579;19;20997;-46
2022/08/05 04:53:35;;;;;;;4.57;3.67;;;26.30;62.40;;;;;;7388042;19;20383;-47
2022/08/05 04:56:05;;;;;;;5.57;4.40;;;26.30;61.90;;;;;;7387894;19;20468;-46
2022/08/05 04:58:35;;;;;;;7.33;3.67;;;26.30;61.30;;;;;;7386039;19;20387;-47
2022/08/05 05:01:07;;;;;;;5.83;3.90;;;26.30;61.30;;;;;;7387153;19;21067;-47
2022/08/05 05:03:37;;;;;;;6.40;3.40;;;26.20;61.80;;;;;;7386065;19;20408;-47
2022/08/05 05:06:07;;;;;;;7.60;3.33;;;26.20;62.30;;;;;;7389082;19;20376;-47
2022/08/05 05:08:38;;;;;;;5.50;4.00;;;26.30;61.80;;;;;;7389126;19;20720;-47
2022/08/05 05:11:08;;;;;;;13.67;7.50;;;26.50;61.40;;;;;;7388355;19;20380;-47
2022/08/05 05:13:40;;;;;;;6.30;4.53;;;26.50;60.80;;;;;;7389056;19;20368;-46
2022/08/05 05:16:13;;;;;;;4.83;4.00;;;26.70;60.60;;;;;;7386225;19;20404;-47
2022/08/05 05:18:44;;;;;;;6.30;3.20;;;26.70;60.20;;;;;;7388161;19;20376;-47
2022/08/05 05:21:16;;;;;;;8.63;3.17;;;26.80;60.20;;;;;;7386902;19;20383;-47
2022/08/05 05:23:45;;;;;;;6.80;4.60;;;26.70;60.30;;;;;;7387545;19;20371;-47
2022/08/05 05:26:14;;;;;;;5.47;4.60;;;26.80;60.20;;;;;;7388421;19;20969;-47
2022/08/05 05:28:44;;;;;;;6.17;3.90;;;26.80;59.80;;;;;;7386647;19;20365;-47
2022/08/05 05:31:16;;;;;;;9.97;4.17;;;26.90;59.70;;;;;;7385889;19;21021;-47
2022/08/05 05:33:47;;;;;;;4.13;3.73;;;26.90;59.70;;;;;;7386767;19;20385;-47
2022/08/05 05:36:17;;;;;;;5.33;4.23;;;26.90;59.40;;;;;;7385233;19;20368;-47
2022/08/05 05:38:46;;;;;;;7.73;3.80;;;27.10;59.20;;;;;;7385880;19;20412;-47
2022/08/05 05:41:16;;;;;;;5.53;4.13;;;27.10;59.10;;;;;;7387973;19;20368;-47
2022/08/05 05:43:45;;;;;;;5.77;3.50;;;27.20;59.10;;;;;;7385673;19;20380;-47
2022/08/05 05:46:17;;;;;;;8.90;4.50;;;27.20;59.00;;;;;;7387126;19;20817;-47
2022/08/05 05:48:47;;;;;;;5.97;4.10;;;27.10;59.40;;;;;;7384450;19;20397;-47
2022/08/05 05:51:21;;;;;;;6.80;3.83;;;27.10;59.40;;;;;;7387354;19;20401;-47
2022/08/05 05:53:53;;;;;;;7.33;4.53;;;27.20;59.30;;;;;;7386524;19;20397;-47
2022/08/05 05:56:23;;;;;;;4.80;3.87;;;27.30;59.20;;;;;;7387175;19;20372;-47
2022/08/05 05:58:52;;;;;;;6.20;3.63;;;27.50;59.00;;;;;;7387916;19;20743;-47
2022/08/05 06:01:24;;;;;;;5.73;5.07;;;27.50;58.70;;;;;;7383899;19;20459;-47
2022/08/05 06:03:54;;;;;;;5.40;3.93;;;27.60;58.60;;;;;;7385129;19;20421;-47
2022/08/05 06:06:23;;;;;;;5.47;3.80;;;27.70;58.30;;;;;;7386173;19;20383;-47
2022/08/05 06:08:53;;;;;;;6.00;4.23;;;27.90;58.00;;;;;;7384829;19;20394;-47
2022/08/05 06:11:22;;;;;;;6.90;3.80;;;27.80;57.40;;;;;;7386015;19;20380;-47
2022/08/05 06:13:52;;;;;;;9.97;3.80;;;27.90;57.50;;;;;;7385303;19;20384;-47
2022/08/05 06:16:24;;;;;;;5.80;3.90;;;27.90;57.10;;;;;;7385736;19;20387;-47
2022/08/05 06:18:54;;;;;;;4.50;3.83;;;28.10;56.80;;;;;;7386120;19;20385;-47
2022/08/05 06:21:23;;;;;;;5.00;3.83;;;28.20;56.50;;;;;;7384517;19;20452;-47
2022/08/05 06:23:52;;;;;;;4.23;3.83;;;28.20;56.20;;;;;;7385503;19;20384;-47
2022/08/05 06:26:22;;;;;;;4.40;3.60;;;28.10;57.10;;;;;;7386948;19;20372;-47
2022/08/05 06:28:51;;;;;;;8.27;3.70;;;28.20;56.20;;;;;;7385508;19;20417;-46
2022/08/05 06:31:23;;;;;;;4.37;3.80;;;28.30;55.80;;;;;;7383888;19;20459;-46
2022/08/05 06:33:55;;;;;;;3.83;3.23;;;28.30;55.80;;;;;;7385557;19;20408;-47
2022/08/05 06:36:27;;;;;;;5.67;3.57;;;28.50;55.50;;;;;;7385313;19;20376;-47
2022/08/05 06:38:56;;;;;;;4.10;3.70;;;28.70;55.10;;;;;;7383517;19;20380;-47
2022/08/05 06:41:26;;;;;;;7.70;3.43;;;28.80;54.80;;;;;;7383677;19;20432;-47
2022/08/05 06:43:55;;;;;;;3.50;3.20;;;28.90;54.50;;;;;;7386245;19;21008;-47
2022/08/05 06:46:27;;;;;;;4.57;3.13;;;29.00;54.00;;;;;;7384477;19;20392;-47
2022/08/05 06:48:57;;;;;;;3.43;3.13;;;29.10;53.80;;;;;;7385671;19;20383;-47
2022/08/05 06:51:26;;;;;;;6.13;3.67;;;29.10;53.60;;;;;;7384079;19;20425;-47
2022/08/05 06:53:56;;;;;;;4.27;3.73;;;29.20;53.40;;;;;;7385440;19;20384;-47
2022/08/05 06:56:25;;;;;;;4.10;3.50;;;29.30;53.40;;;;;;7383983;19;20395;-47
2022/08/05 06:58:55;;;;;;;3.63;3.27;;;29.40;53.10;;;;;;7383646;19;20375;-47
2022/08/05 07:01:27;;;;;;;4.17;3.70;;;29.60;52.90;;;;;;7382341;19;20439;-47
2022/08/05 07:03:57;;;;;;;3.67;3.37;;;29.80;52.00;;;;;;7383460;19;20395;-47
2022/08/05 07:06:29;;;;;;;3.40;2.73;;;29.90;51.90;;;;;;7383191;19;20434;-47
2022/08/05 07:08:58;;;;;;;2.93;2.57;;;30.00;51.70;;;;;;7382823;19;20364;-47
2022/08/05 07:11:29;;;;;;;7.87;3.00;;;30.00;51.20;;;;;;7383102;19;20379;-47
2022/08/05 07:16:58;;;;;;;3.77;2.70;;;30.00;50.80;;;;;;7385458;19;20372;-47
2022/08/05 07:19:28;;;;;;;6.23;3.50;;;30.00;50.80;;;;;;7384509;19;20423;-47
2022/08/05 07:21:58;;;;;;;5.53;2.60;;;30.10;51.00;;;;;;7385677;19;20395;-47
2022/08/05 07:24:28;;;;;;;5.60;3.30;;;30.20;50.90;;;;;;7381613;19;20479;-47
2022/08/05 07:26:59;;;;;;;6.03;3.30;;;30.50;50.40;;;;;;7383500;19;20500;-47
2022/08/05 07:29:29;;;;;;;5.67;2.83;;;30.50;50.10;;;;;;7384365;19;20368;-47
2022/08/05 07:32:01;;;;;;;6.37;3.00;;;30.70;49.60;;;;;;7381992;19;20448;-47
2022/08/05 07:34:30;;;;;;;3.90;2.93;;;30.90;49.50;;;;;;7381474;19;20360;-47
2022/08/05 07:36:59;;;;;;;3.83;3.13;;;30.90;48.70;;;;;;7382230;19;20835;-47
2022/08/05 07:39:29;;;;;;;6.37;3.20;;;31.00;48.60;;;;;;7380335;19;20384;-47
2022/08/05 07:41:58;;;;;;;4.30;3.10;;;30.90;48.70;;;;;;7390526;19;20383;-47
2022/08/05 07:44:28;;;;;;;4.27;2.77;;;31.00;48.40;;;;;;7388439;19;20376;-47
2022/08/05 07:47:00;;;;;;;3.17;2.87;;;31.10;48.00;;;;;;7391151;19;20380;-47
2022/08/05 07:49:30;;;;;;;3.57;2.63;;;31.20;48.00;;;;;;7390350;19;20965;-47
2022/08/05 07:52:02;;;;;;;4.53;2.87;;;31.20;47.90;;;;;;7389728;19;20382;-47
2022/08/05 07:54:31;;;;;;;6.53;4.60;;;31.40;47.60;;;;;;7387893;19;20741;-47
2022/08/05 07:57:01;;;;;;;11.73;7.33;;;31.40;46.90;;;;;;7391108;19;20372;-47
2022/08/05 07:59:30;;;;;;;4.47;3.00;;;31.40;47.10;;;;;;7390107;19;20379;-47
2022/08/05 08:02:03;;;;;;;18.80;9.90;;;31.50;47.10;;;;;;7389457;19;20380;-47
2022/08/05 08:04:32;;;;;;;11.20;7.10;;;31.70;46.80;;;;;;7387585;19;20384;-47
2022/08/05 08:07:04;;;;;;;9.47;4.97;;;31.90;45.80;;;;;;7390642;19;20897;-47
2022/08/05 08:09:36;;;;;;;5.00;3.50;;;32.10;45.40;;;;;;7389043;19;20471;-47
2022/08/05 08:12:08;;;;;;;2.53;2.07;;;32.10;45.00;;;;;;7388120;19;20467;-47
2022/08/05 08:14:38;;;;;;;4.03;2.50;;;32.10;43.80;;;;;;7387523;19;20376;-47
2022/08/05 08:17:10;;;;;;;2.10;1.87;;;32.20;43.30;;;;;;7387138;19;20422;-47
2022/08/05 08:19:43;;;;;;;3.40;2.53;;;32.30;43.20;;;;;;7389729;19;20459;-47
2022/08/05 08:22:15;;;;;;;3.17;2.00;;;32.40;42.10;;;;;;7387346;19;20408;-47
2022/08/05 08:24:47;;;;;;;2.30;1.83;;;32.50;46.70;;;;;;7388670;19;20424;-47
2022/08/05 08:27:16;;;;;;;2.77;1.80;;;32.80;41.30;;;;;;7389871;19;20380;-47
2022/08/05 08:29:46;;;;;;;3.63;2.57;;;32.70;40.80;;;;;;7389841;19;20380;-47
2022/08/05 08:32:18;;;;;;;3.17;1.93;;;32.70;41.00;;;;;;7388599;19;20423;-47
2022/08/05 08:34:47;;;;;;;5.23;2.10;;;32.80;41.00;;;;;;7387795;19;20384;-47
2022/08/05 08:37:20;;;;;;;3.90;1.53;;;32.90;40.80;;;;;;7390140;19;20453;-47
2022/08/05 08:39:50;;;;;;;2.63;2.30;;;33.20;40.30;;;;;;7388944;19;20416;-48
2022/08/05 08:42:20;;;;;;;2.40;2.20;;;33.30;40.30;;;;;;7389464;19;20388;-48
2022/08/05 08:44:50;;;;;;;2.07;1.70;;;33.40;40.10;;;;;;7390404;19;20376;-48
2022/08/05 08:47:26;;;;;;;2.50;1.80;;;33.50;40.20;;;;;;7387197;19;20391;-48
2022/08/05 08:49:58;;;;;;;2.10;1.90;;;33.50;39.60;;;;;;7387142;19;20936;-48
2022/08/05 08:52:32;;;;;;;2.63;1.90;;;33.60;39.80;;;;;;7384801;19;20376;-48
2022/08/05 08:55:02;;;;;;;6.77;2.17;;;33.80;39.40;;;;;;7388542;19;20387;-48
2022/08/05 08:57:32;;;;;;;3.13;2.20;;;34.10;39.10;;;;;;7389374;19;20375;-48
2022/08/05 09:00:01;;;;;;;2.87;2.10;;;34.50;37.90;;;;;;7388295;19;20496;-48
2022/08/05 09:02:34;;;;;;;13.53;2.70;;;34.50;38.10;;;;;;7388358;19;20786;-48
2022/08/05 09:05:05;;;;;;;4.67;2.50;;;34.90;37.40;;;;;;7386258;19;20412;-48
2022/08/05 09:07:34;;;;;;;3.13;2.10;;;35.30;37.30;;;;;;7387074;19;20441;-48
2022/08/05 09:10:07;;;;;;;2.10;1.80;;;35.60;37.00;;;;;;7387075;19;20419;-48
2022/08/05 09:12:37;;;;;;;2.90;1.70;;;35.80;35.90;;;;;;7385207;19;20391;-48
2022/08/05 09:15:10;;;;;;;2.00;1.80;;;36.10;35.30;;;;;;7386890;19;20443;-48
2022/08/05 09:17:43;;;;;;;3.23;2.10;;;36.50;35.20;;;;;;7386593;19;20372;-48
2022/08/05 09:20:13;;;;;;;3.50;2.00;;;36.90;34.60;;;;;;7386729;19;20469;-48
2022/08/05 09:23:10;;;;;;;2.97;1.50;;;37.40;34.20;;;;;;7387905;19;20376;-48
2022/08/05 09:25:42;;;;;;;2.17;1.60;;;37.70;33.10;;;;;;7387053;19;20754;-48
2022/08/05 09:28:17;;;;;;;1.80;1.70;;;37.70;32.80;;;;;;7386700;19;20383;-50
2022/08/05 09:30:54;;;;;;;1.70;1.57;;;38.10;32.70;;;;;;7385213;19;20387;-47
2022/08/05 09:33:29;;;;;;;3.33;1.40;;;38.40;31.60;;;;;;7384354;19;20899;-48
2022/08/05 09:36:00;;;;;;;1.83;1.73;;;38.90;31.70;;;;;;7386013;19;20695;-48
2022/08/05 09:38:31;;;;;;;3.93;2.07;;;38.90;31.00;;;;;;7385154;19;20413;-47
2022/08/05 09:41:08;;;;;;;1.60;1.27;;;39.50;30.50;;;;;;7385284;19;20480;-48
2022/08/05 09:43:40;;;;;;;1.40;1.30;;;39.90;30.10;;;;;;7387222;19;20387;-48
2022/08/05 09:46:27;;;;;;;5.43;1.53;;;40.10;29.60;;;;;;7384646;19;20564;-48
2022/08/05 09:49:03;;;;;;;2.50;1.50;;;39.90;29.60;;;;;;7387571;19;20416;-48
2022/08/05 09:51:34;;;;;;;1.77;1.43;;;39.90;29.60;;;;;;7386417;19;21180;-48
2022/08/05 09:54:07;;;;;;;3.87;1.60;;;40.00;29.30;;;;;;7386426;19;20414;-48
2022/08/05 09:56:40;;;;;;;3.77;1.80;;;39.80;30.10;;;;;;7385749;19;20364;-48
2022/08/05 09:59:16;;;;;;;2.03;1.83;;;40.30;29.40;;;;;;7387022;19;20502;-48
2022/08/05 10:01:46;;;;;;;2.40;2.10;;;40.90;29.00;;;;;;7385676;19;20440;-48
2022/08/05 10:04:18;;;;;;;1.30;1.20;;;41.40;28.70;;;;;;7381443;19;21571;-48
2022/08/05 10:06:56;;;;;;;1.80;1.70;;;41.70;28.10;;;;;;7385032;19;20372;-48
2022/08/05 10:09:26;;;;;;;2.40;1.40;;;41.90;28.00;;;;;;7385271;19;20380;-48
2022/08/05 10:11:55;;;;;;;5.83;2.10;;;42.60;28.00;;;;;;7382583;19;20376;-48
2022/08/05 10:14:29;;;;;;;2.87;1.63;;;43.30;26.70;;;;;;7381333;19;20376;-48
2022/08/05 10:17:15;;;;;;;2.23;1.40;;;43.50;27.20;;;;;;7383957;19;20372;-48
2022/08/05 10:19:48;;;;;;;2.77;1.60;;;44.00;26.10;;;;;;7384715;19;20394;-48
2022/08/05 10:22:18;;;;;;;5.07;3.17;;;44.50;25.80;;;;;;7385366;19;20440;-48
2022/08/05 10:24:48;;;;;;;1.77;1.47;;;44.90;25.60;;;;;;7384191;19;20420;-49
2022/08/05 10:27:17;;;;;;;1.43;1.30;;;45.10;25.10;;;;;;7385296;19;20413;-48
2022/08/05 10:29:50;;;;;;;3.33;1.57;;;45.50;24.90;;;;;;7385298;19;20814;-48
2022/08/05 10:32:20;;;;;;;2.47;1.60;;;45.60;24.70;;;;;;7384069;19;20464;-48
2022/08/05 10:34:52;;;;;;;1.63;1.37;;;45.70;24.50;;;;;;7382938;19;20380;-48
2022/08/05 10:37:24;;;;;;;1.80;1.50;;;45.80;24.40;;;;;;7384072;19;20364;-48
2022/08/05 10:39:56;;;;;;;1.27;1.13;;;45.50;24.30;;;;;;7383843;19;20720;-48
2022/08/05 10:42:27;;;;;;;3.87;1.50;;;45.60;24.50;;;;;;7385795;19;20424;-48
2022/08/05 10:44:58;;;;;;;1.80;1.53;;;46.00;24.20;;;;;;7384042;19;20457;-48
2022/08/05 10:47:39;;;;;;;1.77;1.27;;;46.60;23.90;;;;;;7385268;19;20771;-49
2022/08/05 10:50:14;;;;;;;1.33;1.23;;;47.40;23.60;;;;;;7384598;19;20410;-49
2022/08/05 10:52:47;;;;;;;3.80;1.53;;;47.30;23.40;;;;;;7384171;19;20380;-49
2022/08/05 10:55:20;;;;;;;1.63;1.27;;;46.80;23.20;;;;;;7385137;19;20807;-48
2022/08/05 10:58:10;;;;;;;1.30;1.20;;;47.10;23.20;;;;;;7383371;19;20380;-49
2022/08/05 11:00:39;;;;;;;1.40;1.30;;;48.40;22.70;;;;;;7384656;19;20512;-49
2022/08/05 11:03:14;;;;;;;1.33;1.23;;;49.30;22.10;;;;;;7381708;19;20380;-49
2022/08/05 11:06:09;;;;;;;2.90;1.57;;;49.50;21.90;;;;;;7383568;19;20379;-49
2022/08/05 11:08:38;;;;;;;37.93;4.87;;;49.50;21.90;;;;;;7383342;19;20956;-49
2022/08/05 11:11:36;;;;;;;2.30;1.50;;;49.40;21.90;;;;;;7381821;19;20733;-49
2022/08/05 11:14:06;;;;;;;1.67;1.57;;;49.90;21.80;;;;;;7382774;19;20376;-49
2022/08/05 11:16:36;;;;;;;1.60;1.50;;;49.90;21.70;;;;;;7381394;19;20387;-49
2022/08/05 11:19:27;;;;;;;1.50;1.40;;;50.20;21.60;;;;;;7383598;19;20375;-49
2022/08/05 11:22:34;;;;;;;1.97;1.40;;;50.50;21.30;;;;;;7382268;19;20938;-49
2022/08/05 11:25:31;;;;;;;4.90;1.80;;;50.00;21.70;;;;;;7382750;19;20434;-49
2022/08/05 11:28:30;;;;;;;2.37;1.30;;;50.40;21.50;;;;;;7383291;19;20360;-50
2022/08/05 11:31:36;;;;;;;2.70;1.60;;;50.30;21.70;;;;;;7383212;19;20395;-50
2022/08/05 11:34:09;;;;;;;3.90;1.57;;;50.70;21.20;;;;;;7383591;19;20924;-50
2022/08/05 11:36:50;;;;;;;1.90;1.70;;;50.50;21.30;;;;;;7382629;19;20380;-50
2022/08/05 11:39:52;;;;;;;2.83;2.10;;;50.70;21.20;;;;;;7384228;19;20379;-49
2022/08/05 11:42:26;;;;;;;2.17;1.97;;;50.50;21.10;;;;;;7381396;19;20510;-49
2022/08/05 11:45:03;;;;;;;2.80;2.30;;;49.40;21.70;;;;;;7383266;19;20758;-49
2022/08/05 11:47:36;;;;;;;1.87;1.77;;;49.20;22.00;;;;;;7382643;19;20368;-50
2022/08/05 11:50:07;;;;;;;4.33;2.70;;;49.40;21.90;;;;;;7385241;19;20376;-50
2022/08/05 11:52:37;;;;;;;4.50;2.33;;;50.00;21.80;;;;;;7383885;19;20416;-49
2022/08/05 11:55:10;;;;;;;2.23;2.03;;;50.20;21.30;;;;;;7379941;19;20460;-49
2022/08/05 11:57:39;;;;;;;2.00;1.77;;;48.70;22.10;;;;;;7383893;19;20379;-49
2022/08/05 12:00:27;;;;;;;9.23;8.33;;;47.80;22.60;;;;;;7382645;19;20796;-49
2022/08/05 12:02:57;;;;;;;3.47;3.00;;;47.50;23.00;;;;;;7379514;19;20822;-49
2022/08/05 12:05:28;;;;;;;2.80;2.60;;;48.00;22.70;;;;;;7380994;19;20909;-50
2022/08/05 12:07:59;;;;;;;4.87;1.77;;;49.10;22.20;;;;;;7382648;19;20736;-50
2022/08/05 12:10:34;;;;;;;2.20;1.80;;;49.60;21.80;;;;;;7382498;19;20380;-49
2022/08/05 12:13:06;;;;;;;1.90;1.67;;;49.50;21.90;;;;;;7382787;19;20785;-49
2022/08/05 12:15:36;;;;;;;2.73;2.03;;;49.10;22.30;;;;;;7384564;19;20380;-49
2022/08/05 12:18:05;;;;;;;1.70;1.60;;;48.90;22.50;;;;;;7383632;19;20380;-49
2022/08/05 12:20:37;;;;;;;5.13;1.90;;;48.90;22.50;;;;;;7382791;19;20947;-49
2022/08/05 12:23:11;;;;;;;2.30;2.10;;;48.50;22.60;;;;;;7383903;19;20375;-49
2022/08/05 12:25:54;;;;;;;2.90;1.87;;;48.00;23.00;;;;;;7382614;19;20382;-49
2022/08/05 12:28:37;;;;;;;2.87;1.60;;;47.00;23.70;;;;;;7388448;19;20372;-49
2022/08/05 12:31:07;;;;;;;2.10;1.90;;;45.20;24.90;;;;;;7390564;19;20376;-48
2022/08/05 12:33:37;;;;;;;2.20;1.70;;;43.50;25.50;;;;;;7390495;19;20372;-48
2022/08/05 12:36:08;;;;;;;3.00;2.03;;;42.60;26.60;;;;;;7389739;19;20388;-48
2022/08/05 12:38:42;;;;;;;3.77;2.10;;;41.90;27.40;;;;;;7389415;19;20881;-48
2022/08/05 12:41:17;;;;;;;2.63;2.10;;;41.50;28.00;;;;;;7388612;19;20383;-48
2022/08/05 12:43:54;;;;;;;3.30;2.10;;;40.90;28.60;;;;;;7388792;19;20382;-48
2022/08/05 12:46:24;;;;;;;3.53;2.10;;;40.60;29.10;;;;;;7388528;19;21354;-47
2022/08/05 12:49:03;;;;;;;3.13;1.90;;;40.10;29.80;;;;;;7387600;19;20448;-47
2022/08/05 12:51:33;;;;;;;5.60;4.30;;;39.80;29.80;;;;;;7387498;19;20746;-47
2022/08/05 12:54:03;;;;;;;4.60;3.90;;;39.50;29.90;;;;;;7388700;19;20372;-47
2022/08/05 12:56:35;;;;;;;2.77;1.90;;;39.30;30.10;;;;;;7389059;19;20383;-47
2022/08/05 12:59:15;;;;;;;3.70;2.23;;;39.00;30.50;;;;;;7388223;19;20415;-47
2022/08/05 13:01:47;;;;;;;2.80;2.07;;;39.00;30.60;;;;;;7384425;19;20428;-47
2022/08/05 13:04:18;;;;;;;3.57;2.13;;;38.90;30.90;;;;;;7385802;19;20392;-47
2022/08/05 13:06:48;;;;;;;3.63;2.10;;;39.20;30.30;;;;;;7388128;19;20413;-47
2022/08/05 13:09:18;;;;;;;2.23;2.03;;;39.50;30.10;;;;;;7387842;19;20380;-47
2022/08/05 13:11:50;;;;;;;2.40;2.20;;;39.60;30.40;;;;;;7388242;19;20904;-48
2022/08/05 13:14:25;;;;;;;4.67;2.13;;;39.20;30.00;;;;;;7385602;19;20740;-47
2022/08/05 13:16:58;;;;;;;2.50;2.30;;;38.90;30.50;;;;;;7365636;19;20433;-47